createdAt,value
2022-07-28T00:00:42.000Z,161
2022-07-28T00:01:58.000Z,161
2022-07-28T00:03:13.000Z,160
2022-07-28T00:04:28.000Z,158
2022-07-28T00:05:45.000Z,161
2022-07-28T00:07:01.000Z,161
2022-07-28T00:08:17.000Z,161
2022-07-28T00:09:33.000Z,160
2022-07-28T00:10:49.000Z,159
2022-07-28T00:12:06.000Z,161
2022-07-28T00:13:22.000Z,161
2022-07-28T00:14:38.000Z,159
2022-07-28T00:15:54.000Z,158
2022-07-28T00:17:11.000Z,159
2022-07-28T00:18:27.000Z,162
2022-07-28T00:19:43.000Z,161
2022-07-28T00:20:58.000Z,161
2022-07-28T00:22:15.000Z,161
2022-07-28T00:23:31.000Z,158
2022-07-28T00:24:47.000Z,161
2022-07-28T00:26:03.000Z,159
2022-07-28T00:27:20.000Z,159
2022-07-28T00:28:36.000Z,161
2022-07-28T00:29:51.000Z,161
2022-07-28T00:31:06.000Z,161
2022-07-28T00:32:23.000Z,161
2022-07-28T00:33:39.000Z,161
2022-07-28T00:34:54.000Z,160
2022-07-28T00:36:10.000Z,161
2022-07-28T00:37:26.000Z,161
2022-07-28T00:38:42.000Z,159
2022-07-28T00:39:58.000Z,159
2022-07-28T00:41:14.000Z,160
2022-07-28T00:42:30.000Z,157
2022-07-28T00:43:47.000Z,157
2022-07-28T00:45:03.000Z,158
2022-07-28T00:46:19.000Z,159
2022-07-28T00:47:35.000Z,157
2022-07-28T00:48:52.000Z,157
2022-07-28T00:50:08.000Z,158
2022-07-28T00:51:24.000Z,161
2022-07-28T00:52:40.000Z,159
2022-07-28T00:53:57.000Z,157
2022-07-28T00:55:12.000Z,158
2022-07-28T00:56:28.000Z,161
2022-07-28T00:57:44.000Z,160
2022-07-28T00:59:00.000Z,158
2022-07-28T01:00:17.000Z,159
2022-07-28T01:01:32.000Z,158
2022-07-28T01:02:47.000Z,159
2022-07-28T01:04:03.000Z,159
2022-07-28T01:05:18.000Z,159
2022-07-28T01:06:34.000Z,155
2022-07-28T01:07:50.000Z,158
2022-07-28T01:09:06.000Z,159
2022-07-28T01:10:23.000Z,156
2022-07-28T01:11:39.000Z,158
2022-07-28T01:12:55.000Z,158
2022-07-28T01:14:11.000Z,161
2022-07-28T01:15:28.000Z,159
2022-07-28T01:16:44.000Z,158
2022-07-28T01:18:00.000Z,161
2022-07-28T01:19:16.000Z,161
2022-07-28T01:20:33.000Z,161
2022-07-28T01:21:48.000Z,161
2022-07-28T01:23:04.000Z,161
2022-07-28T01:24:20.000Z,160
2022-07-28T01:25:36.000Z,160
2022-07-28T01:26:53.000Z,159
2022-07-28T01:28:09.000Z,160
2022-07-28T01:29:25.000Z,158
2022-07-28T01:30:40.000Z,157
2022-07-28T01:31:56.000Z,161
2022-07-28T01:33:12.000Z,161
2022-07-28T01:34:27.000Z,161
2022-07-28T01:35:42.000Z,158
2022-07-28T01:36:59.000Z,161
2022-07-28T01:38:15.000Z,161
2022-07-28T01:39:31.000Z,161
2022-07-28T01:40:47.000Z,160
2022-07-28T01:42:04.000Z,161
2022-07-28T01:43:20.000Z,161
2022-07-28T01:44:36.000Z,160
2022-07-28T01:45:52.000Z,161
2022-07-28T01:47:09.000Z,160
2022-07-28T01:48:25.000Z,159
2022-07-28T01:49:41.000Z,161
2022-07-28T01:50:57.000Z,159
2022-07-28T01:52:13.000Z,158
2022-07-28T01:53:29.000Z,160
2022-07-28T01:54:45.000Z,161
2022-07-28T01:56:01.000Z,161
2022-07-28T01:57:17.000Z,161
2022-07-28T01:58:34.000Z,161
2022-07-28T01:59:50.000Z,161
2022-07-28T02:02:22.000Z,161
2022-07-28T02:03:39.000Z,161
2022-07-28T02:04:54.000Z,160
2022-07-28T02:06:09.000Z,158
2022-07-28T02:07:25.000Z,161
2022-07-28T02:08:42.000Z,161
2022-07-28T02:09:57.000Z,161
2022-07-28T02:11:13.000Z,160
2022-07-28T02:12:28.000Z,160
2022-07-28T02:13:45.000Z,161
2022-07-28T02:15:01.000Z,159
2022-07-28T02:16:17.000Z,156
2022-07-28T02:17:33.000Z,157
2022-07-28T02:18:50.000Z,156
2022-07-28T02:20:06.000Z,157
2022-07-28T02:21:22.000Z,159
2022-07-28T02:22:38.000Z,158
2022-07-28T02:23:54.000Z,156
2022-07-28T02:25:11.000Z,156
2022-07-28T02:26:27.000Z,161
2022-07-28T02:27:43.000Z,159
2022-07-28T02:28:58.000Z,159
2022-07-28T02:30:15.000Z,156
2022-07-28T02:31:31.000Z,159
2022-07-28T02:32:47.000Z,156
2022-07-28T02:34:03.000Z,159
2022-07-28T02:35:20.000Z,157
2022-07-28T02:36:36.000Z,157
2022-07-28T02:37:51.000Z,161
2022-07-28T02:39:06.000Z,160
2022-07-28T02:40:23.000Z,159
2022-07-28T02:41:38.000Z,159
2022-07-28T02:42:53.000Z,156
2022-07-28T02:44:09.000Z,159
2022-07-28T02:45:26.000Z,157
2022-07-28T02:46:42.000Z,159
2022-07-28T02:47:58.000Z,156
2022-07-28T02:49:14.000Z,157
2022-07-28T02:50:30.000Z,157
2022-07-28T02:51:47.000Z,156
2022-07-28T02:53:03.000Z,154
2022-07-28T02:54:19.000Z,155
2022-07-28T02:55:35.000Z,159
2022-07-28T02:56:52.000Z,156
2022-07-28T02:58:08.000Z,159
2022-07-28T02:59:24.000Z,156
2022-07-28T03:00:40.000Z,160
2022-07-28T03:01:56.000Z,160
2022-07-28T03:03:12.000Z,159
2022-07-28T03:04:28.000Z,157
2022-07-28T03:05:44.000Z,157
2022-07-28T03:07:01.000Z,159
2022-07-28T03:08:16.000Z,156
2022-07-28T03:09:31.000Z,159
2022-07-28T03:10:47.000Z,161
2022-07-28T03:12:04.000Z,161
2022-07-28T03:13:19.000Z,164
2022-07-28T03:14:34.000Z,165
2022-07-28T03:15:50.000Z,163
2022-07-28T03:17:07.000Z,163
2022-07-28T03:18:23.000Z,163
2022-07-28T03:19:39.000Z,164
2022-07-28T03:20:55.000Z,166
2022-07-28T03:22:11.000Z,168
2022-07-28T03:23:28.000Z,134
2022-07-28T03:24:44.000Z,19
2022-07-28T03:26:00.000Z,27
2022-07-28T03:27:16.000Z,30
2022-07-28T03:28:33.000Z,31
2022-07-28T03:29:49.000Z,40
2022-07-28T03:31:04.000Z,50
2022-07-28T03:32:20.000Z,55
2022-07-28T03:33:37.000Z,58
2022-07-28T03:34:53.000Z,66
2022-07-28T03:36:09.000Z,78
2022-07-28T03:37:25.000Z,89
2022-07-28T03:38:41.000Z,103
2022-07-28T03:39:57.000Z,119
2022-07-28T03:41:12.000Z,131
2022-07-28T03:42:28.000Z,146
2022-07-28T03:43:44.000Z,164
2022-07-28T03:45:01.000Z,179
2022-07-28T03:46:17.000Z,207
2022-07-28T03:47:33.000Z,226
2022-07-28T03:48:49.000Z,245
2022-07-28T03:50:06.000Z,264
2022-07-28T03:51:22.000Z,274
2022-07-28T03:52:38.000Z,289
2022-07-28T03:53:54.000Z,298
2022-07-28T03:55:11.000Z,307
2022-07-28T03:56:27.000Z,312
2022-07-28T03:57:42.000Z,321
2022-07-28T03:58:58.000Z,330
2022-07-28T04:00:15.000Z,347
2022-07-28T04:01:31.000Z,363
2022-07-28T04:02:47.000Z,378
2022-07-28T04:04:03.000Z,397
2022-07-28T04:05:19.000Z,418
2022-07-28T04:06:35.000Z,434
2022-07-28T04:07:50.000Z,451
2022-07-28T04:09:05.000Z,470
2022-07-28T04:10:21.000Z,492
2022-07-28T04:11:37.000Z,513
2022-07-28T04:12:53.000Z,540
2022-07-28T04:14:09.000Z,561
2022-07-28T04:15:25.000Z,586
2022-07-28T04:16:42.000Z,614
2022-07-28T04:17:58.000Z,643
2022-07-28T04:19:14.000Z,671
2022-07-28T04:20:30.000Z,697
2022-07-28T04:21:47.000Z,721
2022-07-28T04:23:03.000Z,746
2022-07-28T04:24:19.000Z,770
2022-07-28T04:25:35.000Z,788
2022-07-28T04:26:51.000Z,809
2022-07-28T04:28:07.000Z,834
2022-07-28T04:29:23.000Z,866
2022-07-28T04:30:39.000Z,899
2022-07-28T04:31:55.000Z,941
2022-07-28T04:33:12.000Z,977
2022-07-28T04:34:28.000Z,1031
2022-07-28T04:35:43.000Z,1096
2022-07-28T04:36:58.000Z,1161
2022-07-28T04:38:14.000Z,1250
2022-07-28T04:39:29.000Z,1323
2022-07-28T04:40:45.000Z,1369
2022-07-28T04:42:01.000Z,1423
2022-07-28T04:43:18.000Z,1481
2022-07-28T04:44:34.000Z,1550
2022-07-28T04:45:50.000Z,1606
2022-07-28T04:47:06.000Z,1660
2022-07-28T04:48:23.000Z,1711
2022-07-28T04:49:39.000Z,1757
2022-07-28T04:50:55.000Z,1814
2022-07-28T04:52:11.000Z,1879
2022-07-28T04:53:28.000Z,1941
2022-07-28T04:54:44.000Z,1990
2022-07-28T04:55:59.000Z,2040
2022-07-28T04:57:15.000Z,2091
2022-07-28T04:58:32.000Z,2144
2022-07-28T04:59:48.000Z,2202
2022-07-28T05:01:04.000Z,2262
2022-07-28T05:02:20.000Z,2316
2022-07-28T05:03:36.000Z,2374
2022-07-28T05:04:52.000Z,2432
2022-07-28T05:06:07.000Z,2488
2022-07-28T05:07:22.000Z,2547
2022-07-28T05:08:37.000Z,2608
2022-07-28T05:09:54.000Z,2669
2022-07-28T05:11:10.000Z,2715
2022-07-28T05:12:26.000Z,2757
2022-07-28T05:13:42.000Z,2804
2022-07-28T05:14:59.000Z,2857
2022-07-28T05:16:15.000Z,2904
2022-07-28T05:17:31.000Z,2951
2022-07-28T05:18:47.000Z,2984
2022-07-28T05:20:04.000Z,2996
2022-07-28T05:21:20.000Z,3008
2022-07-28T05:22:36.000Z,3028
2022-07-28T05:23:52.000Z,3061
2022-07-28T05:25:08.000Z,3107
2022-07-28T05:26:24.000Z,3163
2022-07-28T05:27:40.000Z,3218
2022-07-28T05:28:56.000Z,3284
2022-07-28T05:30:12.000Z,3355
2022-07-28T05:31:29.000Z,3426
2022-07-28T05:32:45.000Z,3483
2022-07-28T05:34:01.000Z,3557
2022-07-28T05:35:17.000Z,3665
2022-07-28T05:36:34.000Z,3785
2022-07-28T05:37:50.000Z,3916
2022-07-28T05:39:06.000Z,4042
2022-07-28T05:40:22.000Z,4199
2022-07-28T05:41:38.000Z,4372
2022-07-28T05:42:54.000Z,4557
2022-07-28T05:44:10.000Z,4699
2022-07-28T05:45:26.000Z,4929
2022-07-28T05:46:43.000Z,5139
2022-07-28T05:47:59.000Z,5311
2022-07-28T05:49:15.000Z,5512
2022-07-28T05:50:30.000Z,5662
2022-07-28T05:51:46.000Z,5712
2022-07-28T05:53:01.000Z,5876
2022-07-28T05:54:16.000Z,5961
2022-07-28T05:55:32.000Z,6073
2022-07-28T05:56:48.000Z,6133
2022-07-28T05:58:05.000Z,6176
2022-07-28T05:59:21.000Z,6144
2022-07-28T06:00:37.000Z,6035
2022-07-28T06:01:53.000Z,5876
2022-07-28T06:03:10.000Z,5621
2022-07-28T06:04:26.000Z,5281
2022-07-28T06:05:42.000Z,5000
2022-07-28T06:06:58.000Z,4790
2022-07-28T06:08:15.000Z,4573
2022-07-28T06:09:31.000Z,4296
2022-07-28T06:10:46.000Z,3990
2022-07-28T06:12:02.000Z,3703
2022-07-28T06:13:19.000Z,3522
2022-07-28T06:14:35.000Z,3445
2022-07-28T06:15:51.000Z,3418
2022-07-28T06:17:07.000Z,3429
2022-07-28T06:18:23.000Z,3471
2022-07-28T06:19:39.000Z,3574
2022-07-28T06:20:54.000Z,3730
2022-07-28T06:22:10.000Z,3917
2022-07-28T06:23:26.000Z,4141
2022-07-28T06:24:43.000Z,4299
2022-07-28T06:25:59.000Z,4407
2022-07-28T06:27:15.000Z,4520
2022-07-28T06:28:30.000Z,4559
2022-07-28T06:29:46.000Z,4610
2022-07-28T06:31:02.000Z,4725
2022-07-28T06:32:18.000Z,4784
2022-07-28T06:33:34.000Z,4851
2022-07-28T06:34:51.000Z,4912
2022-07-28T06:36:07.000Z,4905
2022-07-28T06:37:23.000Z,4827
2022-07-28T06:38:39.000Z,4730
2022-07-28T06:39:56.000Z,4654
2022-07-28T06:41:12.000Z,4583
2022-07-28T06:42:28.000Z,4536
2022-07-28T06:43:44.000Z,4463
2022-07-28T06:45:00.000Z,4492
2022-07-28T06:46:16.000Z,4583
2022-07-28T06:47:32.000Z,4731
2022-07-28T06:48:48.000Z,4867
2022-07-28T06:50:04.000Z,4904
2022-07-28T06:51:21.000Z,4951
2022-07-28T06:52:37.000Z,5021
2022-07-28T06:53:53.000Z,5060
2022-07-28T06:55:09.000Z,5084
2022-07-28T06:56:26.000Z,5194
2022-07-28T06:57:42.000Z,5316
2022-07-28T06:58:57.000Z,5338
2022-07-28T07:00:12.000Z,5310
2022-07-28T07:01:28.000Z,5308
2022-07-28T07:02:43.000Z,5256
2022-07-28T07:03:59.000Z,5257
2022-07-28T07:05:15.000Z,5302
2022-07-28T07:06:32.000Z,5286
2022-07-28T07:07:48.000Z,5232
2022-07-28T07:09:04.000Z,5111
2022-07-28T07:10:20.000Z,5059
2022-07-28T07:11:36.000Z,5067
2022-07-28T07:12:53.000Z,5016
2022-07-28T07:14:09.000Z,4974
2022-07-28T07:15:25.000Z,4886
2022-07-28T07:16:41.000Z,4802
2022-07-28T07:17:58.000Z,4727
2022-07-28T07:19:13.000Z,4576
2022-07-28T07:20:29.000Z,4498
2022-07-28T07:21:45.000Z,4455
2022-07-28T07:23:02.000Z,4349
2022-07-28T07:24:18.000Z,4402
2022-07-28T07:25:34.000Z,4435
2022-07-28T07:26:50.000Z,4488
2022-07-28T07:28:07.000Z,4644
2022-07-28T07:29:22.000Z,4647
2022-07-28T07:30:38.000Z,4576
2022-07-28T07:31:53.000Z,4483
2022-07-28T07:33:09.000Z,4396
2022-07-28T07:34:25.000Z,4372
2022-07-28T07:35:41.000Z,4424
2022-07-28T07:36:57.000Z,4462
2022-07-28T07:38:13.000Z,4489
2022-07-28T07:39:30.000Z,4492
2022-07-28T07:40:46.000Z,4486
2022-07-28T07:42:02.000Z,4470
2022-07-28T07:43:18.000Z,4423
2022-07-28T07:44:35.000Z,4383
2022-07-28T07:45:51.000Z,4336
2022-07-28T07:47:07.000Z,4366
2022-07-28T07:48:23.000Z,4418
2022-07-28T07:49:39.000Z,4283
2022-07-28T07:50:55.000Z,4263
2022-07-28T07:52:11.000Z,4401
2022-07-28T07:53:27.000Z,4406
2022-07-28T07:54:44.000Z,4384
2022-07-28T07:56:00.000Z,4387
2022-07-28T07:57:16.000Z,4383
2022-07-28T07:58:31.000Z,4433
2022-07-28T07:59:47.000Z,4490
2022-07-28T08:01:02.000Z,4509
2022-07-28T08:02:17.000Z,4538
2022-07-28T08:03:33.000Z,4589
2022-07-28T08:04:50.000Z,4643
2022-07-28T08:06:06.000Z,4688
2022-07-28T08:07:22.000Z,4750
2022-07-28T08:08:38.000Z,4799
2022-07-28T08:09:54.000Z,4864
2022-07-28T08:11:11.000Z,4943
2022-07-28T08:12:27.000Z,4991
2022-07-28T08:13:43.000Z,5032
2022-07-28T08:14:59.000Z,5087
2022-07-28T08:16:16.000Z,5158
2022-07-28T08:17:32.000Z,5224
2022-07-28T08:18:47.000Z,5270
2022-07-28T08:20:03.000Z,5294
2022-07-28T08:21:20.000Z,5274
2022-07-28T08:22:36.000Z,5220
2022-07-28T08:23:52.000Z,5125
2022-07-28T08:25:08.000Z,5068
2022-07-28T08:26:25.000Z,5079
2022-07-28T08:27:40.000Z,4923
2022-07-28T08:28:55.000Z,4767
2022-07-28T08:30:11.000Z,4721
2022-07-28T08:31:27.000Z,4763
2022-07-28T08:32:43.000Z,4926
2022-07-28T08:33:58.000Z,4888
2022-07-28T08:35:14.000Z,4826
2022-07-28T08:36:30.000Z,4875
2022-07-28T08:37:47.000Z,4896
2022-07-28T08:39:03.000Z,4884
2022-07-28T08:40:19.000Z,4925
2022-07-28T08:41:35.000Z,4966
2022-07-28T08:42:52.000Z,4890
2022-07-28T08:44:08.000Z,4744
2022-07-28T08:45:24.000Z,4765
2022-07-28T08:46:40.000Z,4814
2022-07-28T08:47:57.000Z,4717
2022-07-28T08:49:13.000Z,4625
2022-07-28T08:50:28.000Z,4552
2022-07-28T08:51:44.000Z,4654
2022-07-28T08:53:01.000Z,4793
2022-07-28T08:54:17.000Z,4728
2022-07-28T08:55:33.000Z,4627
2022-07-28T08:56:49.000Z,4585
2022-07-28T08:58:05.000Z,4650
2022-07-28T08:59:21.000Z,4693
2022-07-28T09:00:36.000Z,4649
2022-07-28T09:01:52.000Z,4644
2022-07-28T09:03:07.000Z,4686
2022-07-28T09:04:23.000Z,4674
2022-07-28T09:05:39.000Z,4634
2022-07-28T09:06:55.000Z,4563
2022-07-28T09:08:11.000Z,4423
2022-07-28T09:09:28.000Z,4196
2022-07-28T09:10:44.000Z,4184
2022-07-28T09:12:00.000Z,4304
2022-07-28T09:13:16.000Z,4273
2022-07-28T09:14:33.000Z,4235
2022-07-28T09:15:49.000Z,4238
2022-07-28T09:17:05.000Z,4233
2022-07-28T09:18:21.000Z,4230
2022-07-28T09:19:38.000Z,4238
2022-07-28T09:20:53.000Z,4244
2022-07-28T09:22:09.000Z,4215
2022-07-28T09:23:25.000Z,4188
2022-07-28T09:24:41.000Z,4219
2022-07-28T09:25:58.000Z,4264
2022-07-28T09:27:14.000Z,4251
2022-07-28T09:28:30.000Z,4265
2022-07-28T09:29:45.000Z,4312
2022-07-28T09:31:01.000Z,4337
2022-07-28T09:32:17.000Z,4360
2022-07-28T09:33:33.000Z,4395
2022-07-28T09:34:48.000Z,4451
2022-07-28T09:36:04.000Z,4468
2022-07-28T09:37:20.000Z,4497
2022-07-28T09:38:36.000Z,4511
2022-07-28T09:39:52.000Z,4496
2022-07-28T09:41:09.000Z,4481
2022-07-28T09:42:25.000Z,4480
2022-07-28T09:43:41.000Z,4498
2022-07-28T09:44:57.000Z,4517
2022-07-28T09:46:14.000Z,4556
2022-07-28T09:47:30.000Z,4602
2022-07-28T09:48:46.000Z,4621
2022-07-28T09:50:02.000Z,4678
2022-07-28T09:51:18.000Z,4720
2022-07-28T09:52:34.000Z,4677
2022-07-28T09:53:50.000Z,4807
2022-07-28T09:55:06.000Z,5061
2022-07-28T09:56:22.000Z,5230
2022-07-28T09:57:39.000Z,5412
2022-07-28T09:58:55.000Z,5556
2022-07-28T10:00:11.000Z,5712
2022-07-28T10:01:26.000Z,5924
2022-07-28T10:02:42.000Z,6149
2022-07-28T10:03:57.000Z,6314
2022-07-28T10:05:12.000Z,6480
2022-07-28T10:06:28.000Z,6650
2022-07-28T10:07:45.000Z,6822
2022-07-28T10:09:01.000Z,6948
2022-07-28T10:10:17.000Z,7000
2022-07-28T10:11:33.000Z,6921
2022-07-28T10:12:50.000Z,6758
2022-07-28T10:14:06.000Z,6642
2022-07-28T10:15:22.000Z,6570
2022-07-28T10:16:38.000Z,6477
2022-07-28T10:17:54.000Z,6358
2022-07-28T10:19:11.000Z,6233
2022-07-28T10:20:27.000Z,6115
2022-07-28T10:21:42.000Z,5995
2022-07-28T10:22:58.000Z,5886
2022-07-28T10:24:15.000Z,5824
2022-07-28T10:25:31.000Z,5836
2022-07-28T10:26:47.000Z,5909
2022-07-28T10:28:03.000Z,5965
2022-07-28T10:29:20.000Z,6062
2022-07-28T10:30:35.000Z,6188
2022-07-28T10:31:50.000Z,6347
2022-07-28T10:33:05.000Z,6569
2022-07-28T10:34:21.000Z,6724
2022-07-28T10:35:37.000Z,6880
2022-07-28T10:36:53.000Z,7030
2022-07-28T10:38:09.000Z,7222
2022-07-28T10:39:26.000Z,7435
2022-07-28T10:40:42.000Z,7611
2022-07-28T10:41:58.000Z,7840
2022-07-28T10:43:14.000Z,8220
2022-07-28T10:44:30.000Z,8559
2022-07-28T10:45:47.000Z,8939
2022-07-28T10:47:03.000Z,9229
2022-07-28T10:48:19.000Z,9607
2022-07-28T10:49:35.000Z,9938
2022-07-28T10:50:51.000Z,9956
2022-07-28T10:52:07.000Z,9884
2022-07-28T10:53:23.000Z,9618
2022-07-28T10:54:39.000Z,9302
2022-07-28T10:55:56.000Z,8927
2022-07-28T10:57:12.000Z,8465
2022-07-28T10:58:28.000Z,7967
2022-07-28T10:59:43.000Z,7389
2022-07-28T11:00:59.000Z,6765
2022-07-28T11:02:15.000Z,6206
2022-07-28T11:03:31.000Z,5704
2022-07-28T11:04:47.000Z,5290
2022-07-28T11:06:04.000Z,5017
2022-07-28T11:07:20.000Z,4800
2022-07-28T11:08:36.000Z,4626
2022-07-28T11:09:52.000Z,4598
2022-07-28T11:11:08.000Z,4579
2022-07-28T11:12:25.000Z,4558
2022-07-28T11:13:41.000Z,4580
2022-07-28T11:14:57.000Z,4642
2022-07-28T11:16:13.000Z,4720
2022-07-28T11:17:29.000Z,4731
2022-07-28T11:18:45.000Z,4645
2022-07-28T11:20:01.000Z,4609
2022-07-28T11:21:17.000Z,4671
2022-07-28T11:22:34.000Z,4745
2022-07-28T11:23:50.000Z,5085
2022-07-28T11:25:06.000Z,5319
2022-07-28T11:26:21.000Z,5263
2022-07-28T11:27:37.000Z,5357
2022-07-28T11:28:53.000Z,5217
2022-07-28T11:30:08.000Z,5216
2022-07-28T11:31:23.000Z,5147
2022-07-28T11:32:40.000Z,5119
2022-07-28T11:33:56.000Z,5204
2022-07-28T11:35:12.000Z,5321
2022-07-28T11:36:28.000Z,5457
2022-07-28T11:37:44.000Z,5628
2022-07-28T11:39:01.000Z,5765
2022-07-28T11:40:17.000Z,5934
2022-07-28T11:41:33.000Z,5959
2022-07-28T11:42:49.000Z,5641
2022-07-28T11:44:06.000Z,5599
2022-07-28T11:45:21.000Z,5743
2022-07-28T11:46:37.000Z,5843
2022-07-28T11:47:53.000Z,5728
2022-07-28T11:49:10.000Z,5990
2022-07-28T11:50:26.000Z,6479
2022-07-28T11:51:42.000Z,7446
2022-07-28T11:52:58.000Z,7833
2022-07-28T11:54:15.000Z,7622
2022-07-28T11:55:31.000Z,6775
2022-07-28T11:56:47.000Z,6343
2022-07-28T11:58:03.000Z,6360
2022-07-28T11:59:19.000Z,6167
2022-07-28T12:00:36.000Z,6051
2022-07-28T12:01:51.000Z,6425
2022-07-28T12:03:07.000Z,6898
2022-07-28T12:04:23.000Z,7127
2022-07-28T12:05:40.000Z,7339
2022-07-28T12:06:56.000Z,7535
2022-07-28T12:08:12.000Z,7332
2022-07-28T12:09:28.000Z,7242
2022-07-28T12:10:45.000Z,7421
2022-07-28T12:12:01.000Z,7549
2022-07-28T12:13:17.000Z,7653
2022-07-28T12:14:33.000Z,7750
2022-07-28T12:15:50.000Z,7821
2022-07-28T12:17:06.000Z,7984
2022-07-28T12:18:21.000Z,8179
2022-07-28T12:19:37.000Z,8382
2022-07-28T12:20:53.000Z,8618
2022-07-28T12:22:10.000Z,9271
2022-07-28T12:23:26.000Z,9584
2022-07-28T12:24:42.000Z,9669
2022-07-28T12:25:58.000Z,9812
2022-07-28T12:27:15.000Z,9936
2022-07-28T12:28:31.000Z,9841
2022-07-28T12:29:47.000Z,9858
2022-07-28T12:31:03.000Z,9882
2022-07-28T12:32:20.000Z,9882
2022-07-28T12:33:36.000Z,10113
2022-07-28T12:34:51.000Z,10442
2022-07-28T12:36:06.000Z,10536
2022-07-28T12:37:23.000Z,10646
2022-07-28T12:38:39.000Z,11102
2022-07-28T12:39:54.000Z,10846
2022-07-28T12:41:09.000Z,10783
2022-07-28T12:42:26.000Z,10799
2022-07-28T12:43:42.000Z,10823
2022-07-28T12:44:58.000Z,10889
2022-07-28T12:46:14.000Z,11274
2022-07-28T12:47:30.000Z,11517
2022-07-28T12:48:47.000Z,11609
2022-07-28T12:50:03.000Z,11315
2022-07-28T12:51:19.000Z,11233
2022-07-28T12:52:35.000Z,11263
2022-07-28T12:53:52.000Z,11077
2022-07-28T12:55:08.000Z,10981
2022-07-28T12:56:24.000Z,11061
2022-07-28T12:57:39.000Z,11107
2022-07-28T12:58:56.000Z,11306
2022-07-28T13:00:12.000Z,11262
2022-07-28T13:01:28.000Z,11161
2022-07-28T13:02:44.000Z,11186
2022-07-28T13:04:01.000Z,11261
2022-07-28T13:05:17.000Z,11322
2022-07-28T13:06:32.000Z,11412
2022-07-28T13:07:47.000Z,11330
2022-07-28T13:09:04.000Z,11462
2022-07-28T13:10:20.000Z,11439
2022-07-28T13:11:35.000Z,11386
2022-07-28T13:12:50.000Z,11363
2022-07-28T13:14:06.000Z,11516
2022-07-28T13:15:23.000Z,11056
2022-07-28T13:16:39.000Z,12025
2022-07-28T13:17:55.000Z,11303
2022-07-28T13:19:11.000Z,11582
2022-07-28T13:20:28.000Z,12143
2022-07-28T13:21:44.000Z,12510
2022-07-28T13:23:00.000Z,9586
2022-07-28T13:24:16.000Z,6418
2022-07-28T13:25:33.000Z,73037
2022-07-28T13:26:49.000Z,38540
2022-07-28T13:28:05.000Z,40746
2022-07-28T13:29:20.000Z,24348
2022-07-28T13:30:37.000Z,75378
2022-07-28T13:31:53.000Z,78099
2022-07-28T13:33:09.000Z,72651
2022-07-28T13:34:25.000Z,31696
2022-07-28T13:35:41.000Z,73045
2022-07-28T13:36:58.000Z,39885
2022-07-28T13:38:14.000Z,71664
2022-07-28T13:39:30.000Z,21061
2022-07-28T13:40:46.000Z,80765
2022-07-28T13:42:03.000Z,78018
2022-07-28T13:43:18.000Z,71457
2022-07-28T13:44:34.000Z,37694
2022-07-28T13:45:49.000Z,34941
2022-07-28T13:47:06.000Z,66552
2022-07-28T13:48:22.000Z,27289
2022-07-28T13:49:37.000Z,7837
2022-07-28T13:50:53.000Z,71836
2022-07-28T13:52:09.000Z,38027
2022-07-28T13:53:25.000Z,39062
2022-07-28T13:54:41.000Z,8438
2022-07-28T13:55:57.000Z,76069
2022-07-28T13:57:14.000Z,82221
2022-07-28T13:58:30.000Z,82437
2022-07-28T13:59:46.000Z,83368
2022-07-28T14:01:02.000Z,81027
2022-07-28T14:02:18.000Z,78870
2022-07-28T14:03:35.000Z,79327
2022-07-28T14:04:51.000Z,79484
2022-07-28T14:06:07.000Z,78523
2022-07-28T14:07:23.000Z,79738
2022-07-28T14:08:39.000Z,77597
2022-07-28T14:09:55.000Z,75253
2022-07-28T14:11:11.000Z,73175
2022-07-28T14:12:27.000Z,72256
2022-07-28T14:13:44.000Z,41698
2022-07-28T14:15:00.000Z,38475
2022-07-28T14:16:15.000Z,37317
2022-07-28T14:17:30.000Z,31163
2022-07-28T14:18:46.000Z,31093
2022-07-28T14:20:01.000Z,42035
2022-07-28T14:21:17.000Z,32095
2022-07-28T14:22:33.000Z,78502
2022-07-28T14:23:50.000Z,80636
2022-07-28T14:25:06.000Z,80429
2022-07-28T14:26:22.000Z,78248
2022-07-28T14:27:38.000Z,81204
2022-07-28T14:28:55.000Z,77769
2022-07-28T14:30:11.000Z,73422
2022-07-28T14:31:27.000Z,40197
2022-07-28T14:32:43.000Z,30428
2022-07-28T14:33:59.000Z,83404
2022-07-28T14:35:16.000Z,82607
2022-07-28T14:36:31.000Z,80610
2022-07-28T14:37:47.000Z,77304
2022-07-28T14:39:03.000Z,77423
2022-07-28T14:40:20.000Z,79210
2022-07-28T14:41:36.000Z,75919
2022-07-28T14:42:52.000Z,73813
2022-07-28T14:44:08.000Z,36932
2022-07-28T14:45:24.000Z,24867
2022-07-28T14:46:39.000Z,80326
2022-07-28T14:47:55.000Z,75946
2022-07-28T14:49:10.000Z,79376
2022-07-28T14:50:26.000Z,79826
2022-07-28T14:51:42.000Z,79701
2022-07-28T14:52:58.000Z,76740
2022-07-28T14:54:14.000Z,75730
2022-07-28T14:55:31.000Z,82329
2022-07-28T14:56:47.000Z,77791
2022-07-28T14:58:03.000Z,82753
2022-07-28T14:59:19.000Z,75820
2022-07-28T15:00:35.000Z,74999
2022-07-28T15:01:52.000Z,74788
2022-07-28T15:03:08.000Z,76170
2022-07-28T15:04:24.000Z,77032
2022-07-28T15:05:40.000Z,75230
2022-07-28T15:06:57.000Z,74944
2022-07-28T15:08:12.000Z,75639
2022-07-28T15:09:28.000Z,80575
2022-07-28T15:10:44.000Z,83170
2022-07-28T15:12:01.000Z,81586
2022-07-28T15:13:17.000Z,79577
2022-07-28T15:14:33.000Z,79668
2022-07-28T15:15:48.000Z,80150
2022-07-28T15:17:04.000Z,83216
2022-07-28T15:18:20.000Z,81287
2022-07-28T15:19:36.000Z,81435
2022-07-28T15:20:51.000Z,78962
2022-07-28T15:22:07.000Z,81837
2022-07-28T15:23:23.000Z,81179
2022-07-28T15:24:39.000Z,76866
2022-07-28T15:25:55.000Z,72759
2022-07-28T15:27:12.000Z,36491
2022-07-28T15:28:28.000Z,35597
2022-07-28T15:29:44.000Z,28016
2022-07-28T15:31:00.000Z,22394
2022-07-28T15:32:16.000Z,25159
2022-07-28T15:33:33.000Z,19965
2022-07-28T15:34:49.000Z,16978
2022-07-28T15:36:05.000Z,21158
2022-07-28T15:37:21.000Z,82968
2022-07-28T15:38:37.000Z,77105
2022-07-28T15:39:53.000Z,84772
2022-07-28T15:41:09.000Z,79167
2022-07-28T15:42:25.000Z,76103
2022-07-28T15:43:42.000Z,74029
2022-07-28T15:44:58.000Z,32643
2022-07-28T15:46:14.000Z,75553
2022-07-28T15:47:29.000Z,77229
2022-07-28T15:48:45.000Z,75753
2022-07-28T15:50:00.000Z,74505
2022-07-28T15:51:15.000Z,68671
2022-07-28T15:52:31.000Z,25254
2022-07-28T15:53:48.000Z,25468
2022-07-28T15:55:04.000Z,25279
2022-07-28T15:56:20.000Z,25097
2022-07-28T15:57:36.000Z,26762
2022-07-28T15:58:52.000Z,22195
2022-07-28T16:00:08.000Z,22403
2022-07-28T16:01:24.000Z,21413
2022-07-28T16:02:40.000Z,18101
2022-07-28T16:03:56.000Z,15957
2022-07-28T16:05:13.000Z,14243
2022-07-28T16:06:29.000Z,15278
2022-07-28T16:07:45.000Z,16235
2022-07-28T16:09:01.000Z,17045
2022-07-28T16:10:18.000Z,16770
2022-07-28T16:11:34.000Z,14483
2022-07-28T16:12:50.000Z,15211
2022-07-28T16:14:06.000Z,13835
2022-07-28T16:15:23.000Z,11890
2022-07-28T16:16:38.000Z,17861
2022-07-28T16:17:54.000Z,19990
2022-07-28T16:19:10.000Z,18769
2022-07-28T16:20:26.000Z,26622
2022-07-28T16:21:43.000Z,14124
2022-07-28T16:22:59.000Z,21865
2022-07-28T16:24:15.000Z,26667
2022-07-28T16:25:31.000Z,34181
2022-07-28T16:26:48.000Z,37732
2022-07-28T16:28:03.000Z,25363
2022-07-28T16:29:18.000Z,29814
2022-07-28T16:30:34.000Z,31242
2022-07-28T16:31:51.000Z,34497
2022-07-28T16:33:07.000Z,34452
2022-07-28T16:34:23.000Z,19838
2022-07-28T16:35:39.000Z,22295
2022-07-28T16:36:55.000Z,72236
2022-07-28T16:38:10.000Z,67446
2022-07-28T16:39:26.000Z,23554
2022-07-28T16:40:42.000Z,30146
2022-07-28T16:41:59.000Z,36469
2022-07-28T16:43:15.000Z,23508
2022-07-28T16:44:31.000Z,24178
2022-07-28T16:45:47.000Z,19748
2022-07-28T16:47:03.000Z,19167
2022-07-28T16:48:20.000Z,14121
2022-07-28T16:49:36.000Z,24950
2022-07-28T16:50:52.000Z,26467
2022-07-28T16:52:08.000Z,15993
2022-07-28T16:53:25.000Z,20323
2022-07-28T16:54:40.000Z,17232